Time;durP1;ratioP1;P1;durP2;ratioP2;P2;SDS_P1;SDS_P2;PMS_P1;PMS_P2;Temp;Humidity;BMP_temperature;BMP_pressure;BME280_temperature;BME280_humidity;BME280_pressure;Samples;Min_cycle;Max_cycle;Signal;HPM_P1;HPM_P2
2023/02/23 00:01:26;;;;;;;22.80;14.10;;;9.30;99.90;;;;;;4826228;29;20736;-62
2023/02/23 00:03:57;;;;;;;22.90;13.47;;;9.20;99.90;;;;;;4826527;29;20250;-62
2023/02/23 00:06:27;;;;;;;23.13;13.27;;;9.30;99.90;;;;;;4828098;29;20243;-62
2023/02/23 00:08:56;;;;;;;26.93;16.70;;;9.30;99.90;;;;;;4826301;29;20240;-62
2023/02/23 00:11:26;;;;;;;25.70;16.60;;;9.20;99.90;;;;;;4826637;29;20241;-62
2023/02/23 00:13:55;;;;;;;30.77;16.03;;;9.10;99.90;;;;;;4828684;29;20596;-62
2023/02/23 00:16:25;;;;;;;31.77;20.10;;;9.10;99.90;;;;;;4826302;29;20301;-62
2023/02/23 00:18:59;;;;;;;28.57;18.33;;;8.90;99.90;;;;;;4826595;29;20272;-62
2023/02/23 00:21:31;;;;;;;32.90;20.27;;;8.90;99.90;;;;;;4825993;29;20232;-62
2023/02/23 00:24:01;;;;;;;29.93;17.87;;;8.70;99.90;;;;;;4826506;29;20243;-62
2023/02/23 00:26:33;;;;;;;32.80;20.13;;;8.90;99.90;;;;;;4823462;29;20243;-62
2023/02/23 00:29:03;;;;;;;28.27;17.00;;;8.70;99.90;;;;;;4824449;29;20322;-62
2023/02/23 00:31:31;;;;;;;30.40;17.97;;;8.80;99.90;;;;;;4825664;29;20247;-62
2023/02/23 00:34:02;;;;;;;32.57;20.57;;;8.90;99.90;;;;;;4826270;29;20743;-62
2023/02/23 00:36:32;;;;;;;31.53;20.07;;;8.90;99.90;;;;;;4827062;29;20612;-62
2023/02/23 00:39:05;;;;;;;33.07;19.90;;;8.70;99.90;;;;;;4825801;29;20585;-62
2023/02/23 00:41:37;;;;;;;34.33;20.67;;;8.70;99.90;;;;;;4824429;29;20645;-62
2023/02/23 00:44:07;;;;;;;35.53;20.23;;;8.60;99.90;;;;;;4826271;29;20232;-62
2023/02/23 00:46:35;;;;;;;31.83;19.63;;;8.50;99.90;;;;;;4825682;29;20235;-62
2023/02/23 00:49:05;;;;;;;30.70;18.93;;;8.50;99.90;;;;;;4825868;29;20236;-62
2023/02/23 00:51:36;;;;;;;32.37;19.47;;;8.50;99.90;;;;;;4825463;29;20247;-62
2023/02/23 00:54:07;;;;;;;32.87;20.53;;;8.40;99.90;;;;;;4824591;29;20236;-62
2023/02/23 00:56:35;;;;;;;33.20;19.97;;;8.40;99.90;;;;;;4822943;29;20240;-62
2023/02/23 00:59:03;;;;;;;38.13;24.33;;;8.40;99.90;;;;;;4818390;29;20705;-62
2023/02/23 01:01:31;;;;;;;34.90;21.27;;;8.30;99.90;;;;;;4824545;29;20258;-62
2023/02/23 01:03:59;;;;;;;32.90;20.63;;;8.40;99.90;;;;;;4825837;29;20694;-62
2023/02/23 01:06:28;;;;;;;36.13;20.53;;;8.40;99.90;;;;;;4826679;29;20232;-62
2023/02/23 01:08:57;;;;;;;33.50;20.40;;;8.30;99.90;;;;;;4825716;29;20242;-62
2023/02/23 01:11:29;;;;;;;32.33;20.20;;;8.30;99.90;;;;;;4825324;29;20228;-62
2023/02/23 01:13:59;;;;;;;36.73;20.40;;;8.30;99.90;;;;;;4825364;29;20232;-62
2023/02/23 01:16:30;;;;;;;33.10;18.97;;;8.30;99.90;;;;;;4820947;29;20247;-61
2023/02/23 01:19:00;;;;;;;36.23;20.40;;;8.40;99.90;;;;;;4807542;29;20748;-62
2023/02/23 01:21:32;;;;;;;33.93;19.60;;;8.30;99.90;;;;;;4818304;29;20331;-61
2023/02/23 01:24:01;;;;;;;36.53;20.70;;;8.20;99.90;;;;;;4807288;29;20220;-62
2023/02/23 01:26:32;;;;;;;31.50;19.57;;;8.10;99.90;;;;;;4812186;29;20244;-62
2023/02/23 01:29:03;;;;;;;30.33;17.13;;;8.20;99.90;;;;;;4825584;29;20245;-62
2023/02/23 01:31:32;;;;;;;37.93;21.93;;;8.50;99.90;;;;;;4823637;29;20251;-62
2023/02/23 01:34:02;;;;;;;34.10;20.10;;;8.40;99.90;;;;;;4823977;29;20288;-62
2023/02/23 01:36:34;;;;;;;32.77;18.93;;;8.30;99.90;;;;;;4824975;29;20260;-62
2023/02/23 01:39:06;;;;;;;33.97;19.10;;;8.20;99.90;;;;;;4824199;29;20696;-62
2023/02/23 01:41:35;;;;;;;29.17;17.10;;;8.30;99.90;;;;;;4825070;29;20232;-62
2023/02/23 01:44:05;;;;;;;32.23;18.77;;;8.50;99.90;;;;;;4825174;29;20226;-62
2023/02/23 01:46:38;;;;;;;27.80;17.00;;;8.70;99.90;;;;;;4824750;29;20240;-61
2023/02/23 01:49:10;;;;;;;32.00;19.83;;;8.70;99.90;;;;;;4822941;29;20263;-62
2023/02/23 01:51:42;;;;;;;34.00;21.20;;;8.70;99.90;;;;;;4824951;29;20269;-62
2023/02/23 01:54:14;;;;;;;29.93;18.73;;;8.40;99.90;;;;;;4825066;29;20708;-62
2023/02/23 01:56:48;;;;;;;32.60;19.33;;;8.30;99.90;;;;;;4821986;29;20240;-62
2023/02/23 01:59:17;;;;;;;31.90;18.73;;;8.20;99.90;;;;;;4824810;29;20710;-62
2023/02/23 02:01:47;;;;;;;27.13;16.83;;;8.10;99.90;;;;;;4823125;29;20248;-62
2023/02/23 02:04:18;;;;;;;29.10;18.50;;;8.40;99.90;;;;;;4823679;29;20232;-62
2023/02/23 02:06:52;;;;;;;28.37;17.57;;;8.50;99.90;;;;;;4825760;29;20256;-62
2023/02/23 02:09:26;;;;;;;27.57;16.27;;;8.60;99.90;;;;;;4824536;29;20708;-62
2023/02/23 02:11:54;;;;;;;29.77;16.97;;;8.70;99.90;;;;;;4824609;29;20243;-61
2023/02/23 02:14:27;;;;;;;27.80;17.13;;;8.70;99.90;;;;;;4824309;29;20247;-61
2023/02/23 02:17:24;;;;;;;26.30;16.10;;;8.70;99.90;;;;;;4823315;29;20791;-61
2023/02/23 02:20:25;;;;;;;27.90;16.47;;;8.80;99.90;;;;;;4826835;29;20744;-62
2023/02/23 02:23:32;;;;;;;26.00;17.13;;;8.80;99.90;;;;;;4823163;29;20232;-61
2023/02/23 02:26:11;;;;;;;26.23;16.07;;;8.70;99.90;;;;;;4821861;29;20228;-62
2023/02/23 02:28:53;;;;;;;26.30;16.73;;;8.80;99.90;;;;;;4824002;29;20259;-61
2023/02/23 02:32:11;;;;;;;26.67;16.90;;;8.80;99.90;;;;;;4822780;29;20288;-61
2023/02/23 02:35:10;;;;;;;26.90;17.43;;;8.90;99.90;;;;;;4823073;29;20236;-61
2023/02/23 02:37:49;;;;;;;28.13;17.20;;;8.90;99.90;;;;;;4822114;29;20323;-61
2023/02/23 02:40:25;;;;;;;29.83;18.63;;;9.00;99.90;;;;;;4822981;29;20242;-62
2023/02/23 02:43:08;;;;;;;33.03;20.30;;;9.00;99.90;;;;;;4824382;29;20239;-62
2023/02/23 02:45:45;;;;;;;33.30;20.57;;;8.60;99.90;;;;;;4822785;29;20570;-62
2023/02/23 02:48:20;;;;;;;28.90;19.33;;;8.40;99.90;;;;;;4824391;29;20239;-61
2023/02/23 02:50:54;;;;;;;28.67;18.80;;;8.40;99.90;;;;;;4823930;29;20231;-62
2023/02/23 02:53:33;;;;;;;31.27;18.87;;;8.40;99.90;;;;;;4823961;29;20283;-62
2023/02/23 02:56:05;;;;;;;28.27;16.87;;;8.40;99.90;;;;;;4821444;29;20614;-62
2023/02/23 02:58:37;;;;;;;29.40;17.70;;;8.70;99.90;;;;;;4822551;29;20338;-61
2023/02/23 04:18:17;;;;;;;28.13;19.77;;;8.80;99.90;;;;;;4825467;29;20236;-62
2023/02/23 04:20:45;;;;;;;31.20;19.70;;;8.90;99.90;;;;;;4826411;29;20247;-62
2023/02/23 04:23:13;;;;;;;32.90;22.30;;;8.90;99.90;;;;;;4826206;29;20232;-62
2023/02/23 04:25:41;;;;;;;30.90;20.47;;;8.90;99.90;;;;;;4819862;29;20702;-62
2023/02/23 04:28:10;;;;;;;32.00;23.43;;;8.90;99.90;;;;;;4820379;29;20293;-61
2023/02/23 04:30:38;;;;;;;33.87;22.73;;;8.90;99.90;;;;;;4818765;29;20780;-62
2023/02/23 04:33:08;;;;;;;28.80;19.83;;;8.60;99.90;;;;;;4819583;29;20288;-62
2023/02/23 04:35:36;;;;;;;33.93;22.23;;;8.50;99.90;;;;;;4818296;29;20259;-62
2023/02/23 04:38:04;;;;;;;31.30;20.77;;;8.70;99.90;;;;;;4820367;29;20252;-62
2023/02/23 04:40:32;;;;;;;32.27;21.40;;;8.80;99.90;;;;;;4815895;29;20237;-62
2023/02/23 04:43:00;;;;;;;34.00;22.77;;;8.80;99.90;;;;;;4825925;29;20231;-62
2023/02/23 04:45:29;;;;;;;36.10;21.90;;;8.80;99.90;;;;;;4825996;29;20258;-62
2023/02/23 04:47:57;;;;;;;34.27;21.53;;;8.80;99.90;;;;;;4826186;29;20712;-62
2023/02/23 04:50:26;;;;;;;36.83;23.13;;;8.70;99.90;;;;;;4825979;29;20232;-62
2023/02/23 04:52:55;;;;;;;37.07;22.93;;;8.70;99.90;;;;;;4825992;29;20232;-62
2023/02/23 04:55:25;;;;;;;31.17;21.10;;;8.80;99.90;;;;;;4825001;29;20236;-62
2023/02/23 04:57:57;;;;;;;33.87;23.07;;;9.00;99.90;;;;;;4824505;29;20689;-62
2023/02/23 05:00:28;;;;;;;36.43;23.43;;;9.00;99.90;;;;;;4824949;29;20360;-62
2023/02/23 05:02:56;;;;;;;32.93;20.50;;;9.00;99.90;;;;;;4825856;29;20237;-62
2023/02/23 05:05:26;;;;;;;35.13;22.87;;;8.90;99.90;;;;;;4825725;29;20239;-62
2023/02/23 05:07:54;;;;;;;38.47;25.10;;;8.90;99.90;;;;;;4824284;29;20240;-62
2023/02/23 05:10:22;;;;;;;40.60;24.57;;;9.00;99.90;;;;;;4825804;29;20239;-62
2023/02/23 05:12:50;;;;;;;36.10;23.43;;;9.00;99.90;;;;;;4825113;29;20236;-62
2023/02/23 05:15:18;;;;;;;35.10;23.20;;;9.00;99.90;;;;;;4825336;29;20307;-62
2023/02/23 05:17:46;;;;;;;36.97;22.83;;;9.10;99.90;;;;;;4825472;29;20605;-62
2023/02/23 05:20:15;;;;;;;36.37;21.87;;;9.00;99.90;;;;;;4825372;29;20231;-62
2023/02/23 05:22:44;;;;;;;35.67;22.93;;;9.10;99.90;;;;;;4825546;29;20704;-62
2023/02/23 05:25:12;;;;;;;36.00;23.67;;;9.10;99.90;;;;;;4825322;29;20296;-62
2023/02/23 05:27:41;;;;;;;37.83;24.23;;;9.10;99.90;;;;;;4824995;29;20240;-62
2023/02/23 05:30:10;;;;;;;38.20;24.63;;;9.20;99.90;;;;;;4819858;29;20269;-62
2023/02/23 05:32:38;;;;;;;39.90;24.83;;;8.90;99.90;;;;;;4814748;29;20273;-62
2023/02/23 05:35:07;;;;;;;36.60;24.17;;;8.90;99.90;;;;;;4817003;29;20239;-62
2023/02/23 05:37:35;;;;;;;35.77;24.90;;;8.70;99.90;;;;;;4817803;29;20241;-62
2023/02/23 05:40:06;;;;;;;37.97;24.47;;;8.50;99.90;;;;;;4825294;29;20319;-62
2023/02/23 05:42:34;;;;;;;44.23;26.10;;;8.40;99.90;;;;;;4824846;29;20230;-62
2023/02/23 05:45:03;;;;;;;40.53;24.20;;;8.60;99.90;;;;;;4824973;29;20227;-62
2023/02/23 05:47:32;;;;;;;49.17;28.43;;;8.60;99.90;;;;;;4824404;29;20600;-62
2023/02/23 05:50:00;;;;;;;44.07;24.30;;;8.60;99.90;;;;;;4812470;29;20240;-62
2023/02/23 05:52:28;;;;;;;46.77;25.43;;;8.60;99.90;;;;;;4806711;29;20245;-62
2023/02/23 05:54:56;;;;;;;54.50;29.83;;;8.70;99.90;;;;;;4841546;29;20684;-62
2023/02/23 05:57:26;;;;;;;52.47;26.83;;;8.90;99.90;;;;;;4823115;29;20243;-62
2023/02/23 05:59:54;;;;;;;56.43;30.17;;;8.80;99.90;;;;;;4819468;29;20236;-62
2023/02/23 06:02:22;;;;;;;60.13;30.43;;;8.80;99.90;;;;;;4824349;29;20621;-62
2023/02/23 06:04:50;;;;;;;53.43;28.90;;;8.60;99.90;;;;;;4824707;29;20323;-62
2023/02/23 06:07:18;;;;;;;52.03;28.47;;;8.40;99.90;;;;;;4825877;29;20284;-62
2023/02/23 06:09:46;;;;;;;51.40;28.07;;;8.30;99.90;;;;;;4824430;29;20250;-62
2023/02/23 06:12:14;;;;;;;51.60;27.10;;;8.20;99.90;;;;;;4826861;29;20224;-62
2023/02/23 06:14:44;;;;;;;53.07;28.83;;;8.30;99.90;;;;;;4824648;29;20593;-62
2023/02/23 06:17:12;;;;;;;50.30;27.90;;;8.20;99.90;;;;;;4824448;29;20354;-62
2023/02/23 06:19:40;;;;;;;55.03;27.73;;;8.10;99.90;;;;;;4824244;29;20231;-62
2023/02/23 06:22:08;;;;;;;57.33;28.27;;;8.10;99.90;;;;;;4824371;29;20240;-62
2023/02/23 06:24:36;;;;;;;56.70;29.43;;;8.20;99.90;;;;;;4824333;29;20244;-62
2023/02/23 06:27:04;;;;;;;62.37;31.13;;;8.20;99.90;;;;;;4806333;29;20720;-62
2023/02/23 06:29:33;;;;;;;58.73;30.37;;;8.10;99.90;;;;;;4806209;29;20236;-62
2023/02/23 06:32:02;;;;;;;56.50;29.77;;;8.20;99.90;;;;;;4820381;29;20252;-62
2023/02/23 06:34:32;;;;;;;61.50;29.60;;;8.20;99.90;;;;;;4823382;29;20240;-62
2023/02/23 06:37:01;;;;;;;52.63;29.17;;;8.30;99.90;;;;;;4833313;29;20597;-62
2023/02/23 06:39:29;;;;;;;54.50;29.23;;;8.30;99.90;;;;;;4824124;29;20232;-62
2023/02/23 06:41:57;;;;;;;64.73;31.67;;;8.20;99.90;;;;;;4823618;29;20228;-63
2023/02/23 06:44:25;;;;;;;58.60;30.90;;;8.10;99.90;;;;;;4823687;29;20232;-62
2023/02/23 06:46:53;;;;;;;55.07;29.83;;;8.00;99.90;;;;;;4827440;29;20231;-62
2023/02/23 06:49:23;;;;;;;62.70;31.10;;;8.00;99.90;;;;;;4834153;29;20246;-63
2023/02/23 06:51:51;;;;;;;63.37;31.00;;;8.10;99.90;;;;;;4834611;29;20244;-63
2023/02/23 06:54:19;;;;;;;64.63;32.47;;;8.00;99.90;;;;;;4831633;29;20711;-63
2023/02/23 06:56:48;;;;;;;68.27;33.57;;;8.00;99.90;;;;;;4836263;29;20240;-62
2023/02/23 06:59:16;;;;;;;78.73;35.40;;;8.00;99.90;;;;;;4828073;29;20224;-62
2023/02/23 07:01:44;;;;;;;92.30;37.47;;;7.90;99.90;;;;;;4826494;29;20263;-62
2023/02/23 07:04:13;;;;;;;87.37;38.93;;;7.90;99.90;;;;;;4838639;29;20758;-62
2023/02/23 07:06:45;;;;;;;86.17;38.87;;;7.80;99.90;;;;;;4832270;29;20715;-62
2023/02/23 07:09:14;;;;;;;92.97;40.03;;;7.80;99.90;;;;;;4826385;29;20243;-62
2023/02/23 07:11:43;;;;;;;97.60;40.10;;;7.70;99.90;;;;;;4823757;29;20244;-62
2023/02/23 07:14:12;;;;;;;92.57;41.30;;;7.70;99.90;;;;;;4829933;29;20223;-62
2023/02/23 07:16:52;;;;;;;100.87;41.20;;;7.70;99.90;;;;;;4827972;29;20240;-62
2023/02/23 07:19:20;;;;;;;103.33;41.50;;;7.60;99.90;;;;;;4831196;29;20243;-62
2023/02/23 07:21:49;;;;;;;101.00;41.20;;;7.70;99.90;;;;;;4833051;29;20231;-62
2023/02/23 07:24:17;;;;;;;107.47;42.17;;;7.60;99.90;;;;;;4841505;29;20223;-62
2023/02/23 07:26:46;;;;;;;95.63;37.90;;;7.60;99.90;;;;;;4829893;29;20235;-62
2023/02/23 07:29:14;;;;;;;101.20;40.40;;;7.70;99.90;;;;;;4819741;29;20232;-62
2023/02/23 07:31:47;;;;;;;93.27;37.93;;;7.70;99.90;;;;;;4832032;29;20239;-62
2023/02/23 07:34:16;;;;;;;92.37;40.97;;;7.80;99.90;;;;;;4822413;29;20331;-62
2023/02/23 07:36:44;;;;;;;96.03;40.97;;;7.80;99.90;;;;;;4824502;29;20255;-62
2023/02/23 07:39:14;;;;;;;101.10;39.50;;;7.80;99.90;;;;;;4827022;29;20247;-63
2023/02/23 07:41:42;;;;;;;91.13;39.30;;;7.80;99.90;;;;;;4829704;29;20244;-62
2023/02/23 07:44:18;;;;;;;100.30;39.57;;;7.80;99.90;;;;;;4831563;29;20292;-63
2023/02/23 07:46:46;;;;;;;95.73;39.93;;;7.80;99.90;;;;;;4826595;29;20692;-63
2023/02/23 07:49:14;;;;;;;97.33;39.83;;;7.80;99.90;;;;;;4830280;29;20640;-62
2023/02/23 07:51:42;;;;;;;104.77;40.07;;;7.80;99.90;;;;;;4831587;29;21000;-62
2023/02/23 07:54:10;;;;;;;105.30;41.33;;;7.80;99.90;;;;;;4832201;29;20557;-62
2023/02/23 07:56:40;;;;;;;101.20;40.37;;;7.80;99.90;;;;;;4830565;29;20242;-62
2023/02/23 07:59:08;;;;;;;106.33;41.37;;;7.80;99.90;;;;;;4825669;29;20232;-62
2023/02/23 08:01:36;;;;;;;110.53;40.40;;;7.80;99.90;;;;;;4823361;29;20240;-62
2023/02/23 08:04:04;;;;;;;114.03;43.53;;;7.80;99.90;;;;;;4825430;29;20676;-63
2023/02/23 08:06:32;;;;;;;115.37;43.67;;;7.80;99.90;;;;;;4832672;29;20739;-63
2023/02/23 08:09:03;;;;;;;110.47;43.53;;;7.80;99.90;;;;;;4841312;29;20259;-62
2023/02/23 08:11:31;;;;;;;120.37;43.67;;;7.80;99.90;;;;;;4838619;29;20270;-63
2023/02/23 08:14:00;;;;;;;124.40;45.43;;;7.80;99.90;;;;;;4844843;29;20617;-62
2023/02/23 08:16:29;;;;;;;122.40;46.57;;;7.70;99.90;;;;;;4841709;29;20704;-62
2023/02/23 08:18:58;;;;;;;125.57;47.20;;;7.70;99.90;;;;;;4844938;29;20595;-62
2023/02/23 08:21:28;;;;;;;137.43;48.10;;;7.70;99.90;;;;;;4842633;29;20242;-62
2023/02/23 08:23:56;;;;;;;134.00;48.03;;;7.70;99.90;;;;;;4842909;29;20235;-62
2023/02/23 08:26:24;;;;;;;135.90;48.97;;;7.70;99.90;;;;;;4844745;29;20238;-63
2023/02/23 08:28:53;;;;;;;140.43;49.40;;;7.70;99.90;;;;;;4844490;29;20235;-62
2023/02/23 08:31:23;;;;;;;142.80;50.60;;;7.70;99.90;;;;;;4844185;29;20244;-63
2023/02/23 08:33:52;;;;;;;141.00;50.10;;;7.70;99.90;;;;;;4844430;29;20231;-63
2023/02/23 08:36:20;;;;;;;147.03;49.13;;;7.70;99.90;;;;;;4835869;29;20304;-63
2023/02/23 08:38:48;;;;;;;138.73;49.87;;;7.60;99.90;;;;;;4825623;29;20232;-63
2023/02/23 08:41:17;;;;;;;149.93;50.67;;;7.60;99.90;;;;;;4825772;29;20243;-63
2023/02/23 08:43:45;;;;;;;158.07;51.07;;;7.60;99.90;;;;;;4811820;29;20650;-63
2023/02/23 08:46:15;;;;;;;138.33;49.43;;;7.60;99.90;;;;;;4812240;29;20239;-63
2023/02/23 08:48:45;;;;;;;145.30;49.23;;;7.60;99.90;;;;;;4825583;29;20331;-63
2023/02/23 08:51:14;;;;;;;147.73;50.70;;;7.70;99.90;;;;;;4826049;29;20250;-63
2023/02/23 08:53:42;;;;;;;172.47;54.30;;;7.70;99.90;;;;;;4871698;23;20255;-81
2023/02/23 08:56:11;;;;;;;142.77;50.10;;;7.70;99.90;;;;;;4842169;29;20231;-81
2023/02/23 08:58:39;;;;;;;153.50;53.03;;;7.70;99.90;;;;;;4843889;29;20258;-81
2023/02/23 09:01:08;;;;;;;155.67;53.40;;;7.70;99.90;;;;;;4850779;24;20334;-59
2023/02/23 09:03:36;;;;;;;151.07;51.17;;;7.70;99.90;;;;;;4859007;29;20234;-59
2023/02/23 09:06:12;;;;;;;152.03;52.33;;;7.70;99.90;;;;;;4858481;29;20249;-59
2023/02/23 09:08:40;;;;;;;149.70;52.50;;;7.70;99.90;;;;;;4854708;29;20310;-58
2023/02/23 09:11:08;;;;;;;154.73;51.40;;;7.80;99.90;;;;;;4853732;29;20255;-59
2023/02/23 09:13:36;;;;;;;144.43;52.57;;;7.80;99.90;;;;;;4858194;29;20235;-58
2023/02/23 09:16:06;;;;;;;150.17;52.23;;;7.80;99.90;;;;;;4862754;29;20237;-59
2023/02/23 09:18:35;;;;;;;142.43;50.67;;;7.80;99.90;;;;;;4862194;29;20297;-59
2023/02/23 09:21:06;;;;;;;148.53;49.70;;;7.80;99.90;;;;;;4862070;29;20714;-59
2023/02/23 09:23:35;;;;;;;146.10;51.10;;;7.80;99.90;;;;;;4855832;29;20253;-59
2023/02/23 09:26:04;;;;;;;144.27;47.80;;;7.80;99.90;;;;;;4847268;29;20234;-59
2023/02/23 09:28:33;;;;;;;142.17;49.70;;;7.80;99.90;;;;;;4862186;29;20235;-59
2023/02/23 09:31:06;;;;;;;137.13;49.20;;;7.80;99.90;;;;;;4861895;29;20610;-59
2023/02/23 09:33:34;;;;;;;137.40;49.03;;;7.80;99.90;;;;;;4850792;29;20393;-59
2023/02/23 09:36:06;;;;;;;148.97;51.17;;;7.90;99.90;;;;;;4846868;29;20231;-58
2023/02/23 09:38:35;;;;;;;145.27;50.57;;;7.80;99.90;;;;;;4848927;29;20235;-59
2023/02/23 09:41:18;;;;;;;149.97;49.53;;;7.80;99.90;;;;;;4846796;29;20235;-59
2023/02/23 09:43:55;;;;;;;141.37;48.50;;;7.80;99.90;;;;;;4861738;29;20234;-59
2023/02/23 09:46:35;;;;;;;145.30;49.10;;;7.90;99.90;;;;;;4861886;29;20227;-59
2023/02/23 09:49:05;;;;;;;141.83;48.93;;;7.90;99.90;;;;;;4825520;29;20227;-59
2023/02/23 09:51:38;;;;;;;137.67;48.57;;;7.90;99.90;;;;;;4825025;29;20271;-59
2023/02/23 09:54:12;;;;;;;145.27;46.53;;;7.90;99.90;;;;;;4855302;29;20295;-59
2023/02/23 09:56:45;;;;;;;148.87;49.00;;;7.90;99.90;;;;;;4855899;29;20240;-59
2023/02/23 09:59:15;;;;;;;141.13;46.33;;;7.90;99.90;;;;;;4861604;29;20333;-59
2023/02/23 10:01:55;;;;;;;142.03;45.43;;;7.80;99.90;;;;;;4860939;29;20325;-58
2023/02/23 10:04:28;;;;;;;140.83;46.07;;;7.70;99.90;;;;;;4861916;29;20226;-59
2023/02/23 10:07:02;;;;;;;143.17;45.73;;;7.70;99.90;;;;;;4857783;29;20687;-59
2023/02/23 10:09:45;;;;;;;138.00;44.90;;;7.70;99.90;;;;;;4856160;29;20617;-58
2023/02/23 10:12:23;;;;;;;138.57;45.17;;;7.70;99.90;;;;;;4825077;29;20703;-58
2023/02/23 10:15:05;;;;;;;134.93;44.27;;;7.70;99.90;;;;;;4844006;29;20718;-59
2023/02/23 10:17:41;;;;;;;129.57;41.93;;;7.70;99.90;;;;;;4849571;29;20580;-59
2023/02/23 10:20:22;;;;;;;137.10;43.67;;;7.70;99.90;;;;;;4848078;29;20230;-59
2023/02/23 10:22:51;;;;;;;129.53;44.00;;;7.70;99.90;;;;;;4861395;29;20239;-59
2023/02/23 10:25:25;;;;;;;136.83;42.97;;;7.70;99.90;;;;;;4853425;29;20246;-59
2023/02/23 10:27:55;;;;;;;127.67;42.47;;;7.60;99.90;;;;;;4843949;29;20239;-59
2023/02/23 10:30:25;;;;;;;139.97;41.93;;;7.60;99.90;;;;;;4842566;29;20232;-58
2023/02/23 10:32:59;;;;;;;128.83;42.30;;;7.60;99.90;;;;;;4842007;29;20235;-59
2023/02/23 10:35:29;;;;;;;135.57;42.63;;;7.60;99.90;;;;;;4842753;29;20243;-59
2023/02/23 10:38:00;;;;;;;131.27;42.53;;;7.50;99.90;;;;;;4860259;29;20234;-59
2023/02/23 10:40:32;;;;;;;137.13;41.47;;;7.50;99.90;;;;;;4861054;29;20703;-59
2023/02/23 10:43:01;;;;;;;127.13;40.53;;;7.50;99.90;;;;;;4861317;29;20238;-59
2023/02/23 10:45:34;;;;;;;131.37;40.40;;;7.50;99.90;;;;;;4860842;29;20238;-59
2023/02/23 10:48:06;;;;;;;124.93;39.43;;;7.40;99.90;;;;;;4849550;29;20236;-59
2023/02/23 10:50:39;;;;;;;131.10;39.10;;;7.40;99.90;;;;;;4842681;29;20728;-59
2023/02/23 10:53:15;;;;;;;119.37;37.97;;;7.40;99.90;;;;;;4852744;29;20222;-59
2023/02/23 10:55:46;;;;;;;119.77;37.43;;;7.40;99.90;;;;;;4853125;29;20321;-58
2023/02/23 10:58:17;;;;;;;116.77;37.20;;;7.40;99.90;;;;;;4860792;29;20246;-59
2023/02/23 11:00:54;;;;;;;122.03;37.43;;;7.40;99.90;;;;;;4860163;29;20299;-59
2023/02/23 11:03:27;;;;;;;114.57;37.97;;;7.50;99.90;;;;;;4860862;29;20234;-59
2023/02/23 11:05:56;;;;;;;115.57;36.67;;;7.50;99.90;;;;;;4856867;29;20292;-59
2023/02/23 11:08:31;;;;;;;109.63;35.70;;;7.50;99.90;;;;;;4860552;29;20237;-59
2023/02/23 11:11:20;;;;;;;108.17;36.50;;;7.50;99.90;;;;;;4843100;29;20243;-59
2023/02/23 11:13:50;;;;;;;103.00;37.47;;;7.60;99.90;;;;;;4835771;29;20243;-59
2023/02/23 11:16:20;;;;;;;99.87;36.40;;;7.60;99.90;;;;;;4839798;29;20602;-58
2023/02/23 11:18:53;;;;;;;103.73;35.63;;;7.70;99.90;;;;;;4831463;29;20260;-59
2023/02/23 11:21:24;;;;;;;100.60;36.97;;;7.70;99.90;;;;;;4832578;29;20231;-59
2023/02/23 11:23:55;;;;;;;94.13;34.87;;;7.80;99.90;;;;;;4843008;29;20242;-58
2023/02/23 11:26:31;;;;;;;101.80;35.07;;;7.90;99.90;;;;;;4847281;29;20235;-59
2023/02/23 11:29:09;;;;;;;93.40;35.07;;;7.90;99.90;;;;;;4841565;29;20238;-59
2023/02/23 11:31:39;;;;;;;92.70;33.37;;;8.00;99.90;;;;;;4846334;29;20228;-59
2023/02/23 11:34:08;;;;;;;90.90;34.93;;;8.00;99.90;;;;;;4833400;29;20232;-58
2023/02/23 11:36:37;;;;;;;87.83;33.90;;;8.00;99.90;;;;;;4835657;29;20378;-58
2023/02/23 11:39:21;;;;;;;92.20;33.67;;;8.00;99.90;;;;;;4845229;29;20248;-59
2023/02/23 11:42:15;;;;;;;88.57;33.20;;;8.10;99.90;;;;;;4831738;29;20719;-59
2023/02/23 11:44:49;;;;;;;92.67;34.07;;;8.20;99.90;;;;;;4833724;29;20228;-58
2023/02/23 11:47:19;;;;;;;87.43;33.80;;;8.20;99.90;;;;;;4836730;29;20246;-59
2023/02/23 11:49:49;;;;;;;86.20;32.70;;;8.30;99.90;;;;;;4836599;29;20247;-59
2023/02/23 11:52:19;;;;;;;82.57;31.47;;;8.30;99.90;;;;;;4837125;29;20235;-58
2023/02/23 11:54:52;;;;;;;85.17;32.87;;;8.40;99.90;;;;;;4843257;29;20231;-59
2023/02/23 11:57:24;;;;;;;82.80;33.93;;;8.40;99.90;;;;;;4835921;29;20247;-59
2023/02/23 11:59:53;;;;;;;88.70;32.37;;;8.50;99.90;;;;;;4851436;29;20238;-58
2023/02/23 12:02:24;;;;;;;80.27;31.53;;;8.50;99.90;;;;;;4863281;29;20243;-59
2023/02/23 12:05:01;;;;;;;75.60;32.27;;;8.60;99.90;;;;;;4861000;29;20230;-59
2023/02/23 12:07:40;;;;;;;81.60;32.07;;;8.80;99.90;;;;;;4859547;29;20234;-59
2023/02/23 12:10:20;;;;;;;77.70;31.77;;;8.90;99.90;;;;;;4826782;29;20267;-59
2023/02/23 12:13:02;;;;;;;77.37;31.40;;;8.90;99.90;;;;;;4826609;29;20284;-59
2023/02/23 12:15:42;;;;;;;77.87;31.67;;;9.00;99.90;;;;;;4826760;29;20681;-60
2023/02/23 12:18:22;;;;;;;74.90;31.23;;;9.00;99.90;;;;;;4826907;29;20603;-59
2023/02/23 12:20:53;;;;;;;75.57;31.17;;;9.10;99.90;;;;;;4826730;29;20238;-58
2023/02/23 12:23:26;;;;;;;76.43;32.53;;;9.10;99.90;;;;;;4850847;29;20565;-59
2023/02/23 12:25:58;;;;;;;72.23;30.00;;;9.20;99.90;;;;;;4841607;29;20228;-59
2023/02/23 12:28:33;;;;;;;75.67;31.77;;;9.20;99.90;;;;;;4833028;29;20763;-58
2023/02/23 12:31:06;;;;;;;74.63;30.70;;;9.30;99.90;;;;;;4844502;29;20287;-58
2023/02/23 12:33:40;;;;;;;70.77;29.43;;;9.20;99.90;;;;;;4844580;29;20249;-59
2023/02/23 12:36:19;;;;;;;73.07;30.53;;;9.10;99.90;;;;;;4839228;29;20243;-58
2023/02/23 12:38:54;;;;;;;70.17;28.93;;;9.00;99.90;;;;;;4861081;29;20294;-58
2023/02/23 12:41:31;;;;;;;74.07;29.97;;;8.90;99.90;;;;;;4834295;29;20243;-59
2023/02/23 12:44:12;;;;;;;69.30;29.10;;;8.70;99.90;;;;;;4834441;29;20569;-59
2023/02/23 12:46:47;;;;;;;72.23;28.60;;;8.70;99.90;;;;;;4835127;29;20731;-59
2023/02/23 12:49:22;;;;;;;63.43;27.87;;;8.60;99.90;;;;;;4834437;29;20246;-59
2023/02/23 12:51:52;;;;;;;68.20;27.83;;;8.70;99.90;;;;;;4835675;29;20231;-59
2023/02/23 12:54:20;;;;;;;68.47;29.13;;;8.70;99.90;;;;;;4837235;29;20704;-58
2023/02/23 12:57:03;;;;;;;74.03;29.27;;;8.80;99.90;;;;;;4835315;29;20228;-58
2023/02/23 12:59:51;;;;;;;69.10;28.40;;;8.80;99.90;;;;;;4832440;29;20235;-59
2023/02/23 13:02:27;;;;;;;66.43;27.57;;;8.80;99.90;;;;;;4851942;29;20257;-59
2023/02/23 13:05:11;;;;;;;66.23;27.87;;;8.80;99.90;;;;;;4863589;29;20333;-59
2023/02/23 13:07:48;;;;;;;58.97;25.60;;;8.80;99.90;;;;;;4856852;29;20690;-59
2023/02/23 13:10:29;;;;;;;56.13;22.40;;;8.70;99.90;;;;;;4863050;29;20223;-59
2023/02/23 13:13:05;;;;;;;52.97;22.37;;;8.60;99.90;;;;;;4863105;29;20250;-59
2023/02/23 13:15:50;;;;;;;61.23;24.80;;;8.60;99.90;;;;;;4862730;29;20245;-59
2023/02/23 13:18:24;;;;;;;53.23;21.57;;;8.60;99.90;;;;;;4847614;29;20242;-59
2023/02/23 13:20:58;;;;;;;51.93;21.47;;;8.60;99.90;;;;;;4844010;29;20786;-59
2023/02/23 13:23:33;;;;;;;52.23;20.80;;;8.60;99.90;;;;;;4856688;29;20264;-59
2023/02/23 13:26:11;;;;;;;53.13;21.60;;;8.60;99.90;;;;;;4854298;29;20241;-59
2023/02/23 13:28:51;;;;;;;48.33;20.70;;;8.60;99.90;;;;;;4843706;29;20281;-59
2023/02/23 13:31:24;;;;;;;52.10;21.03;;;8.60;99.90;;;;;;4843087;29;20334;-59
2023/02/23 13:33:55;;;;;;;54.00;20.97;;;8.60;99.90;;;;;;4832910;29;20315;-58
2023/02/23 13:36:23;;;;;;;47.57;18.87;;;8.60;99.90;;;;;;4840953;29;20713;-59
2023/02/23 13:39:16;;;;;;;43.13;17.90;;;8.60;99.90;;;;;;4841971;29;20232;-58
2023/02/23 13:42:05;;;;;;;39.90;16.50;;;8.60;99.90;;;;;;4833830;29;20240;-58
2023/02/23 13:44:37;;;;;;;43.00;16.57;;;8.60;99.90;;;;;;4834668;29;20601;-60
2023/02/23 13:47:17;;;;;;;41.27;16.77;;;8.60;99.90;;;;;;4838643;29;20219;-59
2023/02/23 13:49:51;;;;;;;41.50;16.97;;;8.50;99.90;;;;;;4835809;29;20242;-59
2023/02/23 13:52:26;;;;;;;41.27;16.47;;;8.50;99.90;;;;;;4835364;29;20227;-59
2023/02/23 13:55:02;;;;;;;42.80;17.27;;;8.50;99.90;;;;;;4853242;29;20234;-58
2023/02/23 13:57:32;;;;;;;41.60;17.50;;;8.50;99.90;;;;;;4861958;29;20644;-59
2023/02/23 14:00:01;;;;;;;45.03;17.03;;;8.50;99.90;;;;;;4861034;29;20717;-59
2023/02/23 14:02:39;;;;;;;42.37;18.13;;;8.50;99.90;;;;;;4857090;29;20246;-59
2023/02/23 14:05:17;;;;;;;43.50;16.37;;;8.50;99.90;;;;;;4861331;29;20330;-59
2023/02/23 14:07:51;;;;;;;46.43;17.00;;;8.60;99.90;;;;;;4859093;29;20294;-59
2023/02/23 14:10:21;;;;;;;45.23;16.90;;;8.60;99.90;;;;;;4862211;29;20226;-58
2023/02/23 14:16:18;;;;;;;45.53;17.30;;;8.70;99.90;;;;;;4848493;29;20235;-59
2023/02/23 14:19:14;;;;;;;40.97;16.47;;;8.60;99.90;;;;;;4843197;29;20295;-59